WetterOnline ( http://www.wetteronline.de )

Wetter aktuell Nuthetal

Aktuelles Wetter: Potsdam (100m)

6-stündlich | Neueste Meldungen
Ortszeit Temperatur Wetter
Do, 26.04. 2:00 8.3° C leicht bewölkt
Mi, 25.04. 20:00 11.4° C fast wolkenlos
Mi, 25.04. 14:00 14.1° C leicht bewölkt
Mi, 25.04. 8:00 11.7° C bedeckt
Mi, 25.04. 2:00 10.9° C leichter Regen
Di, 24.04. 20:00 13.4° C wolkig
Di, 24.04. 14:00 15.6° C leichter Regen
Di, 24.04. 8:00 9.8° C bewölkt
Ortszeit Temperatur Wetter
Do, 26.04. 5:30 6.3° C wolkig
Do, 26.04. 5:20 6.3° C wolkig
Do, 26.04. 5:10 6.5° C bewölkt
Do, 26.04. 5:00 6.4° C wolkig
Do, 26.04. 4:50 6.4° C wolkig
Do, 26.04. 4:40 6.5° C bedeckt
Do, 26.04. 4:30 6.6° C leicht bewölkt
Do, 26.04. 4:00 6.8° C wolkenlos
Do, 26.04. 3:30 6.9° C wolkenlos
Do, 26.04. 3:00 7.0° C fast wolkenlos
Do, 26.04. 2:30 7.5° C leicht bewölkt
Ortszeit Relative Feuchte Sichtweite
Do, 26.04. 2:00 84% 45 km
Mi, 25.04. 20:00 68% 50 km
Mi, 25.04. 14:00 87% 40 km
Mi, 25.04. 8:00 93% 20 km
Mi, 25.04. 2:00 94% 18 km
Di, 24.04. 20:00 74% 35 km
Di, 24.04. 14:00 58% 30 km
Di, 24.04. 8:00 82% 28 km
Ortszeit Relative Feuchte Sichtweite
Do, 26.04. 5:30 93% 40 km
Do, 26.04. 5:20 93% -
Do, 26.04. 5:10 92% -
Do, 26.04. 5:00 93% 40 km
Do, 26.04. 4:50 93% -
Do, 26.04. 4:40 93% -
Do, 26.04. 4:30 93% 40 km
Do, 26.04. 4:00 91% 40 km
Do, 26.04. 3:30 91% 40 km
Do, 26.04. 3:00 90% 45 km
Do, 26.04. 2:30 87% 45 km
Ortszeit Niederschlagsmenge Niederschlagsart
Do, 26.04. 2:00 0.0 l/m2 in 6 Std. -
Mi, 25.04. 20:00 1 l/m2 in 12 Std. Schauer
Mi, 25.04. 14:00 1 l/m2 in 6 Std. Regenschauer
Mi, 25.04. 8:00 0.4 l/m2 in 12 Std. Regen
Mi, 25.04. 2:00 0.1 l/m2 in 6 Std. Regen
Di, 24.04. 20:00 0.1 l/m2 in 12 Std. Regen
Di, 24.04. 14:00 0.1 l/m2 in 6 Std. Regen
Di, 24.04. 8:00 0.0 l/m2 in 12 Std. -
Ortszeit Niederschlagsmenge Niederschlagsart
Do, 26.04. 5:30 0.0 l/m2 in 1 Std. -
Do, 26.04. 5:20 keine Meldung -
Do, 26.04. 5:10 keine Meldung -
Do, 26.04. 5:00 0.0 l/m2 in 1 Std. -
Do, 26.04. 4:50 keine Meldung -
Do, 26.04. 4:40 keine Meldung -
Do, 26.04. 4:30 0.0 l/m2 in 1 Std. -
Do, 26.04. 4:00 0.0 l/m2 in 1 Std. -
Do, 26.04. 3:30 0.0 l/m2 in 1 Std. -
Do, 26.04. 3:00 0.0 l/m2 in 1 Std. -
Do, 26.04. 2:30 0.0 l/m2 in 1 Std. -
Ortszeit Stärke Spitze Richtung
km/h Bft. km/h Grad Sektor
Do, 26.04. 2:00 17 3 41 260° W
Mi, 25.04. 20:00 22 4 76 290° W
Mi, 25.04. 14:00 25 4 68 250° W
Mi, 25.04. 8:00 22 4 32 210° SW
Mi, 25.04. 2:00 11 2 26 210° SW
Di, 24.04. 20:00 14 3 50 260° W
Di, 24.04. 14:00 26 4 46 240° SW
Di, 24.04. 8:00 13 3 20 200° S
Ortszeit Stärke Spitze Richtung
km/h Bft. km/h Grad Sektor
Do, 26.04. 5:30 14 3 18 240° SW
Do, 26.04. 5:20 14 3 - 240° SW
Do, 26.04. 5:10 15 3 - 230° SW
Do, 26.04. 5:00 14 3 25 230° SW
Do, 26.04. 4:50 14 3 - 230° SW
Do, 26.04. 4:40 15 3 - 230° SW
Do, 26.04. 4:30 11 2 25 230° SW
Do, 26.04. 4:00 17 3 28 240° SW
Do, 26.04. 3:30 17 3 28 250° W
Do, 26.04. 3:00 17 3 28 240° SW
Do, 26.04. 2:30 14 3 29 250° W
Ortszeit Untergrenze Bedeckung Gattung
total tief tief mittel hoch
Do, 26.04. 2:00 2700 m 6/8 6/8 - Ac -
Mi, 25.04. 20:00 1290 m 2/8 2/8 Cu - Ci
Mi, 25.04. 14:00 900 m 4/8 4/8 Cb - -
Mi, 25.04. 8:00 1500 m 8/8 7/8 Sc - -
Mi, 25.04. 2:00 1410 m 8/8 7/8 Sc - -
Di, 24.04. 20:00 1320 m 7/8 5/8 Sc - Ci
Di, 24.04. 14:00 1110 m 8/8 4/8 Sc As -
Di, 24.04. 8:00 1380 m 8/8 5/8 Sc As -
Ortszeit Bedeckungsgrad in Achtel und Wolkenuntergrenze
Do, 26.04. 5:30 2(1440m) 4(2400m)
Do, 26.04. 5:20 6(2700m)
Do, 26.04. 5:10 1(1350m) 7(2400m)
Do, 26.04. 5:00 2(1350m) 4(2700m) 6(2700m)
Do, 26.04. 4:50 2(1380m) 6(2700m)
Do, 26.04. 4:40 8(2700m)
Do, 26.04. 4:30 3(3000m)
Do, 26.04. 4:00 keine Wolken
Do, 26.04. 3:30 keine Wolken
Do, 26.04. 3:00 1(3000m)
Do, 26.04. 2:30 3(3000m)
Ortszeit Luftdruck NN (hPa) Tendenz (hPa in 3 Std.)
Do, 26.04. 2:00 1012 + 0,2
Mi, 25.04. 20:00 1010 + 1,4
Mi, 25.04. 14:00 1006 + 0,3
Mi, 25.04. 8:00 1006 - 1,5
Mi, 25.04. 2:00 1011 - 1,8
Di, 24.04. 20:00 1014 - 0,2
Di, 24.04. 14:00 1014 + 0,3
Di, 24.04. 8:00 1015 - 0,7
Ortszeit Luftdruck NN (hPa) Tendenz (hPa in 3 Std.)
Do, 26.04. 5:30 1012 - 0,2
Do, 26.04. 5:20 1012 keine Meldung
Do, 26.04. 5:10 1012 keine Meldung
Do, 26.04. 5:00 1012 - 0,2
Do, 26.04. 4:50 1012 keine Meldung
Do, 26.04. 4:40 1012 keine Meldung
Do, 26.04. 4:30 1012 0,0
Do, 26.04. 4:00 1012 0,0
Do, 26.04. 3:30 1012 + 0,3
Do, 26.04. 3:00 1012 + 0,1
Do, 26.04. 2:30 1012 + 0,2
Ortszeit Schneehöhe (cm)
Do, 26.04. 2:00 0
Mi, 25.04. 20:00 0
Mi, 25.04. 14:00 0
Mi, 25.04. 8:00 0
Mi, 25.04. 2:00 0
Di, 24.04. 20:00 0
Di, 24.04. 14:00 0
Di, 24.04. 8:00 0
Ortszeit Schneehöhe (cm)
Do, 26.04. 5:30 -
Do, 26.04. 5:20 -
Do, 26.04. 5:10 -
Do, 26.04. 5:00 -
Do, 26.04. 4:50 -
Do, 26.04. 4:40 -
Do, 26.04. 4:30 -
Do, 26.04. 4:00 -
Do, 26.04. 3:30 -
Do, 26.04. 3:00 -
Do, 26.04. 2:30 -
Link zu dieser Seite / Seite empfehlen

Das Wetter in ...